<?xml version="1.0" encoding="UTF-8" standalone="no" ?>
<gpx xmlns="http://www.topografix.com/GPX/1/1" xmlns:xsi="http://www.w3.org/2001/XMLSchema-instance" xsi:schemaLocation="http://www.topografix.com/GPX/1/1 http://www.topografix.com/GPX/1/1/gpx.xsd" version="1.1" creator="VisuGPX - https://www.visugpx.com">
  <metadata>
    <name>Sortie VTT Chartreuse</name>
    <desc><![CDATA[Essai]]></desc>
  </metadata>
  <trk>
    <name><![CDATA[Sortie VTT Chartreuse_1]]></name>
    <trkseg>
      <trkpt lat="45.35523" lon="5.78776">
        <ele>819</ele>
        <time>2008-10-25T07:08:02Z</time>
      </trkpt>
      <trkpt lat="45.35532" lon="5.78774">
        <ele>820</ele>
        <time>2008-10-25T07:08:07Z</time>
      </trkpt>
      <trkpt lat="45.35596" lon="5.78789">
        <ele>823</ele>
        <time>2008-10-25T07:08:39Z</time>
      </trkpt>
      <trkpt lat="45.35669" lon="5.78806">
        <ele>825</ele>
        <time>2008-10-25T07:09:11Z</time>
      </trkpt>
      <trkpt lat="45.35716" lon="5.78838">
        <ele>838</ele>
        <time>2008-10-25T07:09:39Z</time>
      </trkpt>
      <trkpt lat="45.35789" lon="5.78881">
        <ele>843</ele>
        <time>2008-10-25T07:10:17Z</time>
      </trkpt>
      <trkpt lat="45.35843" lon="5.78904">
        <ele>849</ele>
        <time>2008-10-25T07:10:47Z</time>
      </trkpt>
      <trkpt lat="45.35909" lon="5.78928">
        <ele>858</ele>
        <time>2008-10-25T07:11:26Z</time>
      </trkpt>
      <trkpt lat="45.35997" lon="5.78995">
        <ele>895</ele>
        <time>2008-10-25T07:12:46Z</time>
      </trkpt>
      <trkpt lat="45.36027" lon="5.79007">
        <ele>898</ele>
        <time>2008-10-25T07:13:14Z</time>
      </trkpt>
      <trkpt lat="45.36064" lon="5.79035">
        <ele>891</ele>
        <time>2008-10-25T07:13:42Z</time>
      </trkpt>
      <trkpt lat="45.36103" lon="5.79052">
        <ele>897</ele>
        <time>2008-10-25T07:14:10Z</time>
      </trkpt>
      <trkpt lat="45.36152" lon="5.79065">
        <ele>898</ele>
        <time>2008-10-25T07:14:37Z</time>
      </trkpt>
      <trkpt lat="45.36195" lon="5.79078">
        <ele>910</ele>
        <time>2008-10-25T07:15:04Z</time>
      </trkpt>
      <trkpt lat="45.36229" lon="5.79091">
        <ele>915</ele>
        <time>2008-10-25T07:15:28Z</time>
      </trkpt>
      <trkpt lat="45.36253" lon="5.79125">
        <ele>927</ele>
        <time>2008-10-25T07:15:53Z</time>
      </trkpt>
      <trkpt lat="45.36285" lon="5.79145">
        <ele>928</ele>
        <time>2008-10-25T07:16:20Z</time>
      </trkpt>
      <trkpt lat="45.36332" lon="5.79155">
        <ele>934</ele>
        <time>2008-10-25T07:16:50Z</time>
      </trkpt>
      <trkpt lat="45.36375" lon="5.79192">
        <ele>937</ele>
        <time>2008-10-25T07:17:26Z</time>
      </trkpt>
      <trkpt lat="45.36422" lon="5.7922">
        <ele>953</ele>
        <time>2008-10-25T07:18:06Z</time>
      </trkpt>
      <trkpt lat="45.36485" lon="5.79291">
        <ele>977</ele>
        <time>2008-10-25T07:19:09Z</time>
      </trkpt>
      <trkpt lat="45.36512" lon="5.79323">
        <ele>979</ele>
        <time>2008-10-25T07:19:32Z</time>
      </trkpt>
      <trkpt lat="45.3656" lon="5.79346">
        <ele>975</ele>
        <time>2008-10-25T07:20:03Z</time>
      </trkpt>
      <trkpt lat="45.36603" lon="5.79346">
        <ele>979</ele>
        <time>2008-10-25T07:20:27Z</time>
      </trkpt>
      <trkpt lat="45.36658" lon="5.79327">
        <ele>983</ele>
        <time>2008-10-25T07:21:00Z</time>
      </trkpt>
      <trkpt lat="45.36703" lon="5.79293">
        <ele>984</ele>
        <time>2008-10-25T07:21:26Z</time>
      </trkpt>
      <trkpt lat="45.36699" lon="5.79248">
        <ele>983</ele>
        <time>2008-10-25T07:21:44Z</time>
      </trkpt>
      <trkpt lat="45.3666" lon="5.79213">
        <ele>984</ele>
        <time>2008-10-25T07:22:09Z</time>
      </trkpt>
      <trkpt lat="45.36628" lon="5.79192">
        <ele>987</ele>
        <time>2008-10-25T07:22:31Z</time>
      </trkpt>
      <trkpt lat="45.36603" lon="5.79153">
        <ele>988</ele>
        <time>2008-10-25T07:22:56Z</time>
      </trkpt>
      <trkpt lat="45.36545" lon="5.79093">
        <ele>975</ele>
        <time>2008-10-25T07:23:44Z</time>
      </trkpt>
      <trkpt lat="45.36515" lon="5.79057">
        <ele>980</ele>
        <time>2008-10-25T07:24:12Z</time>
      </trkpt>
      <trkpt lat="45.36485" lon="5.79022">
        <ele>983</ele>
        <time>2008-10-25T07:24:36Z</time>
      </trkpt>
      <trkpt lat="45.36482" lon="5.7902">
        <ele>983</ele>
        <time>2008-10-25T07:24:38Z</time>
      </trkpt>
      <trkpt lat="45.36459" lon="5.78992">
        <ele>990</ele>
        <time>2008-10-25T07:25:05Z</time>
      </trkpt>
    </trkseg>
  </trk>
  <trk>
    <name><![CDATA[Sortie VTT Chartreuse_2]]></name>
    <trkseg>
      <trkpt lat="45.36459" lon="5.79003">
        <ele>994</ele>
        <time>2008-10-25T07:26:13Z</time>
      </trkpt>
      <trkpt lat="45.36439" lon="5.79035">
        <ele>1012</ele>
        <time>2008-10-25T07:26:35Z</time>
      </trkpt>
      <trkpt lat="45.36442" lon="5.79012">
        <ele>1019</ele>
        <time>2008-10-25T07:27:51Z</time>
      </trkpt>
      <trkpt lat="45.36412" lon="5.78992">
        <ele>1031</ele>
        <time>2008-10-25T07:28:11Z</time>
      </trkpt>
      <trkpt lat="45.36375" lon="5.7896">
        <ele>1032</ele>
        <time>2008-10-25T07:28:37Z</time>
      </trkpt>
      <trkpt lat="45.36332" lon="5.78924">
        <ele>1032</ele>
        <time>2008-10-25T07:29:09Z</time>
      </trkpt>
      <trkpt lat="45.363" lon="5.78892">
        <ele>1033</ele>
        <time>2008-10-25T07:29:31Z</time>
      </trkpt>
      <trkpt lat="45.36255" lon="5.78864">
        <ele>1033</ele>
        <time>2008-10-25T07:29:53Z</time>
      </trkpt>
      <trkpt lat="45.36171" lon="5.78799">
        <ele>1039</ele>
        <time>2008-10-25T07:30:22Z</time>
      </trkpt>
      <trkpt lat="45.36075" lon="5.78707">
        <ele>1041</ele>
        <time>2008-10-25T07:30:55Z</time>
      </trkpt>
      <trkpt lat="45.36038" lon="5.7866">
        <ele>1043</ele>
        <time>2008-10-25T07:31:13Z</time>
      </trkpt>
      <trkpt lat="45.35995" lon="5.78587">
        <ele>1045</ele>
        <time>2008-10-25T07:31:38Z</time>
      </trkpt>
      <trkpt lat="45.35989" lon="5.78563">
        <ele>1045</ele>
        <time>2008-10-25T07:31:45Z</time>
      </trkpt>
      <trkpt lat="45.36032" lon="5.78535">
        <ele>1048</ele>
        <time>2008-10-25T07:31:58Z</time>
      </trkpt>
      <trkpt lat="45.36079" lon="5.78525">
        <ele>1058</ele>
        <time>2008-10-25T07:32:26Z</time>
      </trkpt>
      <trkpt lat="45.36122" lon="5.78518">
        <ele>1069</ele>
        <time>2008-10-25T07:32:52Z</time>
      </trkpt>
      <trkpt lat="45.36163" lon="5.78507">
        <ele>1076</ele>
        <time>2008-10-25T07:33:18Z</time>
      </trkpt>
      <trkpt lat="45.36203" lon="5.78501">
        <ele>1087</ele>
        <time>2008-10-25T07:33:44Z</time>
      </trkpt>
      <trkpt lat="45.36244" lon="5.78497">
        <ele>1090</ele>
        <time>2008-10-25T07:34:11Z</time>
      </trkpt>
      <trkpt lat="45.36281" lon="5.78499">
        <ele>1094</ele>
        <time>2008-10-25T07:34:36Z</time>
      </trkpt>
      <trkpt lat="45.36319" lon="5.78501">
        <ele>1101</ele>
        <time>2008-10-25T07:35:03Z</time>
      </trkpt>
      <trkpt lat="45.3636" lon="5.78505">
        <ele>1108</ele>
        <time>2008-10-25T07:35:30Z</time>
      </trkpt>
      <trkpt lat="45.36416" lon="5.78544">
        <ele>1111</ele>
        <time>2008-10-25T07:36:13Z</time>
      </trkpt>
      <trkpt lat="45.36452" lon="5.7858">
        <ele>1118</ele>
        <time>2008-10-25T07:36:44Z</time>
      </trkpt>
      <trkpt lat="45.365" lon="5.78591">
        <ele>1122</ele>
        <time>2008-10-25T07:37:15Z</time>
      </trkpt>
      <trkpt lat="45.36542" lon="5.78613">
        <ele>1129</ele>
        <time>2008-10-25T07:37:48Z</time>
      </trkpt>
      <trkpt lat="45.36577" lon="5.78634">
        <ele>1131</ele>
        <time>2008-10-25T07:38:16Z</time>
      </trkpt>
      <trkpt lat="45.36615" lon="5.78675">
        <ele>1133</ele>
        <time>2008-10-25T07:38:48Z</time>
      </trkpt>
      <trkpt lat="45.36618" lon="5.78675">
        <ele>1134</ele>
        <time>2008-10-25T07:38:51Z</time>
      </trkpt>
      <trkpt lat="45.3666" lon="5.78694">
        <ele>1137</ele>
        <time>2008-10-25T07:39:29Z</time>
      </trkpt>
      <trkpt lat="45.36676" lon="5.78698">
        <ele>1140</ele>
        <time>2008-10-25T07:39:41Z</time>
      </trkpt>
      <trkpt lat="45.36701" lon="5.78668">
        <ele>1159</ele>
        <time>2008-10-25T07:40:02Z</time>
      </trkpt>
      <trkpt lat="45.36736" lon="5.78634">
        <ele>1159</ele>
        <time>2008-10-25T07:40:30Z</time>
      </trkpt>
      <trkpt lat="45.36759" lon="5.78621">
        <ele>1168</ele>
        <time>2008-10-25T07:40:51Z</time>
      </trkpt>
      <trkpt lat="45.36785" lon="5.78621">
        <ele>1174</ele>
        <time>2008-10-25T07:41:14Z</time>
      </trkpt>
      <trkpt lat="45.3683" lon="5.78636">
        <ele>1177</ele>
        <time>2008-10-25T07:41:50Z</time>
      </trkpt>
      <trkpt lat="45.36888" lon="5.78671">
        <ele>1181</ele>
        <time>2008-10-25T07:42:32Z</time>
      </trkpt>
      <trkpt lat="45.36922" lon="5.78692">
        <ele>1185</ele>
        <time>2008-10-25T07:42:57Z</time>
      </trkpt>
      <trkpt lat="45.36961" lon="5.78701">
        <ele>1193</ele>
        <time>2008-10-25T07:43:22Z</time>
      </trkpt>
      <trkpt lat="45.36987" lon="5.78692">
        <ele>1201</ele>
        <time>2008-10-25T07:43:41Z</time>
      </trkpt>
      <trkpt lat="45.37008" lon="5.78675">
        <ele>1204</ele>
        <time>2008-10-25T07:44:00Z</time>
      </trkpt>
      <trkpt lat="45.37025" lon="5.7866">
        <ele>1209</ele>
        <time>2008-10-25T07:44:17Z</time>
      </trkpt>
      <trkpt lat="45.37053" lon="5.78651">
        <ele>1218</ele>
        <time>2008-10-25T07:44:40Z</time>
      </trkpt>
      <trkpt lat="45.37081" lon="5.78656">
        <ele>1223</ele>
        <time>2008-10-25T07:45:01Z</time>
      </trkpt>
      <trkpt lat="45.37113" lon="5.78647">
        <ele>1227</ele>
        <time>2008-10-25T07:45:25Z</time>
      </trkpt>
      <trkpt lat="45.37145" lon="5.78634">
        <ele>1232</ele>
        <time>2008-10-25T07:45:50Z</time>
      </trkpt>
      <trkpt lat="45.37169" lon="5.78621">
        <ele>1239</ele>
        <time>2008-10-25T07:46:11Z</time>
      </trkpt>
      <trkpt lat="45.37199" lon="5.78604">
        <ele>1240</ele>
        <time>2008-10-25T07:46:34Z</time>
      </trkpt>
      <trkpt lat="45.37201" lon="5.78602">
        <ele>1241</ele>
        <time>2008-10-25T07:46:37Z</time>
      </trkpt>
      <trkpt lat="45.37238" lon="5.78621">
        <ele>1243</ele>
        <time>2008-10-25T07:47:05Z</time>
      </trkpt>
      <trkpt lat="45.37272" lon="5.78645">
        <ele>1248</ele>
        <time>2008-10-25T07:47:34Z</time>
      </trkpt>
      <trkpt lat="45.37296" lon="5.78647">
        <ele>1255</ele>
        <time>2008-10-25T07:47:55Z</time>
      </trkpt>
      <trkpt lat="45.37326" lon="5.78643">
        <ele>1263</ele>
        <time>2008-10-25T07:48:23Z</time>
      </trkpt>
      <trkpt lat="45.37351" lon="5.78656">
        <ele>1264</ele>
        <time>2008-10-25T07:48:45Z</time>
      </trkpt>
      <trkpt lat="45.37371" lon="5.78671">
        <ele>1265</ele>
        <time>2008-10-25T07:49:03Z</time>
      </trkpt>
      <trkpt lat="45.37394" lon="5.78683">
        <ele>1268</ele>
        <time>2008-10-25T07:49:25Z</time>
      </trkpt>
      <trkpt lat="45.37401" lon="5.78662">
        <ele>1274</ele>
        <time>2008-10-25T07:49:38Z</time>
      </trkpt>
      <trkpt lat="45.37392" lon="5.78589">
        <ele>1281</ele>
        <time>2008-10-25T07:50:20Z</time>
      </trkpt>
      <trkpt lat="45.3739" lon="5.78555">
        <ele>1282</ele>
        <time>2008-10-25T07:50:38Z</time>
      </trkpt>
      <trkpt lat="45.37386" lon="5.78544">
        <ele>1283</ele>
        <time>2008-10-25T07:50:44Z</time>
      </trkpt>
      <trkpt lat="45.37384" lon="5.78538">
        <ele>1283</ele>
        <time>2008-10-25T07:50:52Z</time>
      </trkpt>
      <trkpt lat="45.3739" lon="5.78542">
        <ele>1284</ele>
        <time>2008-10-25T07:50:57Z</time>
      </trkpt>
      <trkpt lat="45.3742" lon="5.78561">
        <ele>1289</ele>
        <time>2008-10-25T07:51:23Z</time>
      </trkpt>
      <trkpt lat="45.37444" lon="5.78572">
        <ele>1290</ele>
        <time>2008-10-25T07:51:43Z</time>
      </trkpt>
    </trkseg>
  </trk>
  <trk>
    <name><![CDATA[Sortie VTT Chartreuse_3]]></name>
    <trkseg>
      <trkpt lat="45.37463" lon="5.78598">
        <ele>1287</ele>
        <time>2008-10-25T07:57:25Z</time>
      </trkpt>
      <trkpt lat="45.37469" lon="5.78617">
        <ele>1284</ele>
        <time>2008-10-25T07:57:31Z</time>
      </trkpt>
      <trkpt lat="45.37478" lon="5.78625">
        <ele>1284</ele>
        <time>2008-10-25T07:57:38Z</time>
      </trkpt>
      <trkpt lat="45.37499" lon="5.78628">
        <ele>1286</ele>
        <time>2008-10-25T07:57:54Z</time>
      </trkpt>
      <trkpt lat="45.37502" lon="5.78625">
        <ele>1287</ele>
        <time>2008-10-25T07:57:57Z</time>
      </trkpt>
      <trkpt lat="45.3753" lon="5.78585">
        <ele>1293</ele>
        <time>2008-10-25T07:58:29Z</time>
      </trkpt>
      <trkpt lat="45.37555" lon="5.78591">
        <ele>1296</ele>
        <time>2008-10-25T07:58:51Z</time>
      </trkpt>
      <trkpt lat="45.37562" lon="5.78595">
        <ele>1297</ele>
        <time>2008-10-25T07:58:58Z</time>
      </trkpt>
      <trkpt lat="45.37579" lon="5.78628">
        <ele>1298</ele>
        <time>2008-10-25T07:59:30Z</time>
      </trkpt>
      <trkpt lat="45.37583" lon="5.78634">
        <ele>1299</ele>
        <time>2008-10-25T07:59:59Z</time>
      </trkpt>
      <trkpt lat="45.37585" lon="5.78643">
        <ele>1301</ele>
        <time>2008-10-25T08:00:08Z</time>
      </trkpt>
      <trkpt lat="45.37587" lon="5.78664">
        <ele>1303</ele>
        <time>2008-10-25T08:00:23Z</time>
      </trkpt>
      <trkpt lat="45.376" lon="5.78694">
        <ele>1306</ele>
        <time>2008-10-25T08:00:45Z</time>
      </trkpt>
      <trkpt lat="45.37602" lon="5.78731">
        <ele>1307</ele>
        <time>2008-10-25T08:01:11Z</time>
      </trkpt>
      <trkpt lat="45.37607" lon="5.78735">
        <ele>1307</ele>
        <time>2008-10-25T08:01:17Z</time>
      </trkpt>
      <trkpt lat="45.37628" lon="5.78707">
        <ele>1313</ele>
        <time>2008-10-25T08:01:50Z</time>
      </trkpt>
      <trkpt lat="45.3763" lon="5.78679">
        <ele>1316</ele>
        <time>2008-10-25T08:02:10Z</time>
      </trkpt>
      <trkpt lat="45.37639" lon="5.78675">
        <ele>1319</ele>
        <time>2008-10-25T08:02:41Z</time>
      </trkpt>
      <trkpt lat="45.37641" lon="5.78686">
        <ele>1320</ele>
        <time>2008-10-25T08:03:09Z</time>
      </trkpt>
      <trkpt lat="45.37635" lon="5.78681">
        <ele>1319</ele>
        <time>2008-10-25T08:03:29Z</time>
      </trkpt>
      <trkpt lat="45.37648" lon="5.78688">
        <ele>1304</ele>
        <time>2008-10-25T08:05:53Z</time>
      </trkpt>
      <trkpt lat="45.37648" lon="5.78718">
        <ele>1311</ele>
        <time>2008-10-25T08:06:18Z</time>
      </trkpt>
      <trkpt lat="45.37654" lon="5.78744">
        <ele>1315</ele>
        <time>2008-10-25T08:06:47Z</time>
      </trkpt>
      <trkpt lat="45.37673" lon="5.78784">
        <ele>1320</ele>
        <time>2008-10-25T08:07:31Z</time>
      </trkpt>
      <trkpt lat="45.3768" lon="5.78784">
        <ele>1325</ele>
        <time>2008-10-25T08:07:48Z</time>
      </trkpt>
      <trkpt lat="45.37684" lon="5.78801">
        <ele>1327</ele>
        <time>2008-10-25T08:08:06Z</time>
      </trkpt>
      <trkpt lat="45.37688" lon="5.78806">
        <ele>1326</ele>
        <time>2008-10-25T08:08:27Z</time>
      </trkpt>
      <trkpt lat="45.37693" lon="5.78806">
        <ele>1329</ele>
        <time>2008-10-25T08:08:41Z</time>
      </trkpt>
      <trkpt lat="45.37712" lon="5.7881">
        <ele>1332</ele>
        <time>2008-10-25T08:09:12Z</time>
      </trkpt>
      <trkpt lat="45.37723" lon="5.78819">
        <ele>1333</ele>
        <time>2008-10-25T08:09:29Z</time>
      </trkpt>
      <trkpt lat="45.37725" lon="5.78823">
        <ele>1338</ele>
        <time>2008-10-25T08:10:03Z</time>
      </trkpt>
      <trkpt lat="45.37731" lon="5.78827">
        <ele>1338</ele>
        <time>2008-10-25T08:10:14Z</time>
      </trkpt>
      <trkpt lat="45.37759" lon="5.78851">
        <ele>1341</ele>
        <time>2008-10-25T08:10:43Z</time>
      </trkpt>
      <trkpt lat="45.37791" lon="5.78881">
        <ele>1347</ele>
        <time>2008-10-25T08:11:21Z</time>
      </trkpt>
      <trkpt lat="45.37813" lon="5.78887">
        <ele>1348</ele>
        <time>2008-10-25T08:11:45Z</time>
      </trkpt>
      <trkpt lat="45.37821" lon="5.78885">
        <ele>1346</ele>
        <time>2008-10-25T08:11:59Z</time>
      </trkpt>
      <trkpt lat="45.37849" lon="5.78945">
        <ele>1352</ele>
        <time>2008-10-25T08:12:48Z</time>
      </trkpt>
      <trkpt lat="45.37856" lon="5.78958">
        <ele>1354</ele>
        <time>2008-10-25T08:13:09Z</time>
      </trkpt>
      <trkpt lat="45.37864" lon="5.78971">
        <ele>1358</ele>
        <time>2008-10-25T08:13:26Z</time>
      </trkpt>
      <trkpt lat="45.37875" lon="5.78982">
        <ele>1361</ele>
        <time>2008-10-25T08:13:55Z</time>
      </trkpt>
      <trkpt lat="45.37894" lon="5.78999">
        <ele>1366</ele>
        <time>2008-10-25T08:14:30Z</time>
      </trkpt>
      <trkpt lat="45.37909" lon="5.79007">
        <ele>1370</ele>
        <time>2008-10-25T08:14:57Z</time>
      </trkpt>
      <trkpt lat="45.37937" lon="5.79016">
        <ele>1374</ele>
        <time>2008-10-25T08:15:32Z</time>
      </trkpt>
      <trkpt lat="45.37937" lon="5.79014">
        <ele>1376</ele>
        <time>2008-10-25T08:16:06Z</time>
      </trkpt>
      <trkpt lat="45.37933" lon="5.7901">
        <ele>1379</ele>
        <time>2008-10-25T08:17:05Z</time>
      </trkpt>
      <trkpt lat="45.37942" lon="5.79012">
        <ele>1380</ele>
        <time>2008-10-25T08:17:21Z</time>
      </trkpt>
      <trkpt lat="45.37942" lon="5.79016">
        <ele>1381</ele>
        <time>2008-10-25T08:18:07Z</time>
      </trkpt>
      <trkpt lat="45.37944" lon="5.79022">
        <ele>1378</ele>
        <time>2008-10-25T08:18:51Z</time>
      </trkpt>
      <trkpt lat="45.37957" lon="5.79048">
        <ele>1377</ele>
        <time>2008-10-25T08:19:03Z</time>
      </trkpt>
      <trkpt lat="45.37991" lon="5.79091">
        <ele>1381</ele>
        <time>2008-10-25T08:19:40Z</time>
      </trkpt>
      <trkpt lat="45.38017" lon="5.79128">
        <ele>1384</ele>
        <time>2008-10-25T08:20:12Z</time>
      </trkpt>
      <trkpt lat="45.3804" lon="5.79162">
        <ele>1388</ele>
        <time>2008-10-25T08:20:43Z</time>
      </trkpt>
      <trkpt lat="45.38064" lon="5.79201">
        <ele>1390</ele>
        <time>2008-10-25T08:21:15Z</time>
      </trkpt>
      <trkpt lat="45.38068" lon="5.79198">
        <ele>1391</ele>
        <time>2008-10-25T08:21:19Z</time>
      </trkpt>
      <trkpt lat="45.38077" lon="5.79186">
        <ele>1392</ele>
        <time>2008-10-25T08:21:29Z</time>
      </trkpt>
      <trkpt lat="45.38087" lon="5.79188">
        <ele>1395</ele>
        <time>2008-10-25T08:21:39Z</time>
      </trkpt>
      <trkpt lat="45.38098" lon="5.79192">
        <ele>1396</ele>
        <time>2008-10-25T08:21:48Z</time>
      </trkpt>
      <trkpt lat="45.38122" lon="5.79224">
        <ele>1399</ele>
        <time>2008-10-25T08:22:15Z</time>
      </trkpt>
      <trkpt lat="45.38135" lon="5.79243">
        <ele>1402</ele>
        <time>2008-10-25T08:22:32Z</time>
      </trkpt>
      <trkpt lat="45.38145" lon="5.79235">
        <ele>1405</ele>
        <time>2008-10-25T08:22:48Z</time>
      </trkpt>
      <trkpt lat="45.38158" lon="5.79231">
        <ele>1408</ele>
        <time>2008-10-25T08:23:06Z</time>
      </trkpt>
      <trkpt lat="45.38165" lon="5.79239">
        <ele>1409</ele>
        <time>2008-10-25T08:23:16Z</time>
      </trkpt>
      <trkpt lat="45.38182" lon="5.79265">
        <ele>1414</ele>
        <time>2008-10-25T08:23:57Z</time>
      </trkpt>
      <trkpt lat="45.38184" lon="5.79265">
        <ele>1416</ele>
        <time>2008-10-25T08:24:22Z</time>
      </trkpt>
      <trkpt lat="45.38199" lon="5.79269">
        <ele>1417</ele>
        <time>2008-10-25T08:24:44Z</time>
      </trkpt>
      <trkpt lat="45.38201" lon="5.79271">
        <ele>1416</ele>
        <time>2008-10-25T08:25:12Z</time>
      </trkpt>
      <trkpt lat="45.38193" lon="5.79269">
        <ele>1416</ele>
        <time>2008-10-25T08:25:21Z</time>
      </trkpt>
      <trkpt lat="45.38173" lon="5.79271">
        <ele>1411</ele>
        <time>2008-10-25T08:25:40Z</time>
      </trkpt>
      <trkpt lat="45.38173" lon="5.79271">
        <ele>1410</ele>
        <time>2008-10-25T08:25:56Z</time>
      </trkpt>
      <trkpt lat="45.38169" lon="5.7928">
        <ele>1408</ele>
        <time>2008-10-25T08:26:02Z</time>
      </trkpt>
      <trkpt lat="45.38169" lon="5.79284">
        <ele>1408</ele>
        <time>2008-10-25T08:26:05Z</time>
      </trkpt>
      <trkpt lat="45.3818" lon="5.7928">
        <ele>1409</ele>
        <time>2008-10-25T08:26:25Z</time>
      </trkpt>
      <trkpt lat="45.38173" lon="5.79301">
        <ele>1411</ele>
        <time>2008-10-25T08:26:45Z</time>
      </trkpt>
      <trkpt lat="45.38175" lon="5.79278">
        <ele>1428</ele>
        <time>2008-10-25T08:27:15Z</time>
      </trkpt>
      <trkpt lat="45.38173" lon="5.79276">
        <ele>1425</ele>
        <time>2008-10-25T08:27:30Z</time>
      </trkpt>
      <trkpt lat="45.38171" lon="5.79276">
        <ele>1425</ele>
        <time>2008-10-25T08:27:47Z</time>
      </trkpt>
      <trkpt lat="45.38178" lon="5.79271">
        <ele>1421</ele>
        <time>2008-10-25T08:28:15Z</time>
      </trkpt>
      <trkpt lat="45.38193" lon="5.79274">
        <ele>1418</ele>
        <time>2008-10-25T08:28:31Z</time>
      </trkpt>
      <trkpt lat="45.38208" lon="5.79278">
        <ele>1418</ele>
        <time>2008-10-25T08:28:55Z</time>
      </trkpt>
      <trkpt lat="45.3824" lon="5.79282">
        <ele>1418</ele>
        <time>2008-10-25T08:29:57Z</time>
      </trkpt>
      <trkpt lat="45.38255" lon="5.79284">
        <ele>1374</ele>
        <time>2008-10-25T08:30:31Z</time>
      </trkpt>
      <trkpt lat="45.38259" lon="5.79265">
        <ele>1392</ele>
        <time>2008-10-25T08:31:22Z</time>
      </trkpt>
    </trkseg>
  </trk>
  <trk>
    <name><![CDATA[Sortie VTT Chartreuse_4]]></name>
    <trkseg>
      <trkpt lat="45.38302" lon="5.79329">
        <ele>1392</ele>
        <time>2008-10-25T08:32:00Z</time>
      </trkpt>
      <trkpt lat="45.38302" lon="5.79331">
        <ele>1392</ele>
        <time>2008-10-25T08:32:02Z</time>
      </trkpt>
      <trkpt lat="45.38319" lon="5.79355">
        <ele>1387</ele>
        <time>2008-10-25T08:32:20Z</time>
      </trkpt>
      <trkpt lat="45.38326" lon="5.79372">
        <ele>1388</ele>
        <time>2008-10-25T08:32:42Z</time>
      </trkpt>
      <trkpt lat="45.38336" lon="5.79374">
        <ele>1393</ele>
        <time>2008-10-25T08:32:55Z</time>
      </trkpt>
      <trkpt lat="45.38347" lon="5.79381">
        <ele>1394</ele>
        <time>2008-10-25T08:33:16Z</time>
      </trkpt>
      <trkpt lat="45.38351" lon="5.79389">
        <ele>1393</ele>
        <time>2008-10-25T08:33:23Z</time>
      </trkpt>
      <trkpt lat="45.38362" lon="5.79415">
        <ele>1392</ele>
        <time>2008-10-25T08:33:47Z</time>
      </trkpt>
      <trkpt lat="45.38364" lon="5.79441">
        <ele>1392</ele>
        <time>2008-10-25T08:34:04Z</time>
      </trkpt>
      <trkpt lat="45.38366" lon="5.79464">
        <ele>1391</ele>
        <time>2008-10-25T08:34:16Z</time>
      </trkpt>
      <trkpt lat="45.38375" lon="5.79475">
        <ele>1391</ele>
        <time>2008-10-25T08:34:25Z</time>
      </trkpt>
      <trkpt lat="45.38409" lon="5.79516">
        <ele>1391</ele>
        <time>2008-10-25T08:34:56Z</time>
      </trkpt>
      <trkpt lat="45.38435" lon="5.79557">
        <ele>1386</ele>
        <time>2008-10-25T08:35:13Z</time>
      </trkpt>
      <trkpt lat="45.38454" lon="5.79585">
        <ele>1383</ele>
        <time>2008-10-25T08:35:38Z</time>
      </trkpt>
      <trkpt lat="45.38469" lon="5.79598">
        <ele>1383</ele>
        <time>2008-10-25T08:35:54Z</time>
      </trkpt>
      <trkpt lat="45.38495" lon="5.79621">
        <ele>1384</ele>
        <time>2008-10-25T08:36:28Z</time>
      </trkpt>
      <trkpt lat="45.38519" lon="5.79634">
        <ele>1386</ele>
        <time>2008-10-25T08:36:54Z</time>
      </trkpt>
      <trkpt lat="45.38523" lon="5.79651">
        <ele>1389</ele>
        <time>2008-10-25T08:37:06Z</time>
      </trkpt>
      <trkpt lat="45.38525" lon="5.79662">
        <ele>1390</ele>
        <time>2008-10-25T08:37:27Z</time>
      </trkpt>
      <trkpt lat="45.38529" lon="5.79662">
        <ele>1391</ele>
        <time>2008-10-25T08:37:35Z</time>
      </trkpt>
      <trkpt lat="45.38534" lon="5.7966">
        <ele>1395</ele>
        <time>2008-10-25T08:37:58Z</time>
      </trkpt>
      <trkpt lat="45.38534" lon="5.7966">
        <ele>1396</ele>
        <time>2008-10-25T08:38:38Z</time>
      </trkpt>
      <trkpt lat="45.38551" lon="5.79662">
        <ele>1400</ele>
        <time>2008-10-25T08:39:01Z</time>
      </trkpt>
      <trkpt lat="45.38572" lon="5.79666">
        <ele>1406</ele>
        <time>2008-10-25T08:39:40Z</time>
      </trkpt>
      <trkpt lat="45.38577" lon="5.79677">
        <ele>1408</ele>
        <time>2008-10-25T08:39:59Z</time>
      </trkpt>
      <trkpt lat="45.38585" lon="5.79698">
        <ele>1410</ele>
        <time>2008-10-25T08:40:20Z</time>
      </trkpt>
      <trkpt lat="45.38602" lon="5.79733">
        <ele>1416</ele>
        <time>2008-10-25T08:40:51Z</time>
      </trkpt>
      <trkpt lat="45.38622" lon="5.79763">
        <ele>1421</ele>
        <time>2008-10-25T08:41:18Z</time>
      </trkpt>
      <trkpt lat="45.38626" lon="5.79767">
        <ele>1422</ele>
        <time>2008-10-25T08:41:24Z</time>
      </trkpt>
      <trkpt lat="45.38628" lon="5.79769">
        <ele>1423</ele>
        <time>2008-10-25T08:41:29Z</time>
      </trkpt>
      <trkpt lat="45.38635" lon="5.79784">
        <ele>1421</ele>
        <time>2008-10-25T08:41:46Z</time>
      </trkpt>
      <trkpt lat="45.38635" lon="5.79793">
        <ele>1422</ele>
        <time>2008-10-25T08:41:51Z</time>
      </trkpt>
      <trkpt lat="45.38637" lon="5.79804">
        <ele>1424</ele>
        <time>2008-10-25T08:42:09Z</time>
      </trkpt>
    </trkseg>
  </trk>
  <trk>
    <name><![CDATA[Sortie VTT Chartreuse_5]]></name>
    <trkseg>
      <trkpt lat="45.38643" lon="5.79786">
        <ele>1429</ele>
        <time>2008-10-25T08:59:07Z</time>
      </trkpt>
      <trkpt lat="45.38643" lon="5.79771">
        <ele>1426</ele>
        <time>2008-10-25T08:59:22Z</time>
      </trkpt>
      <trkpt lat="45.38643" lon="5.79728">
        <ele>1426</ele>
        <time>2008-10-25T08:59:34Z</time>
      </trkpt>
      <trkpt lat="45.38669" lon="5.7967">
        <ele>1423</ele>
        <time>2008-10-25T08:59:55Z</time>
      </trkpt>
      <trkpt lat="45.38684" lon="5.79645">
        <ele>1422</ele>
        <time>2008-10-25T09:00:03Z</time>
      </trkpt>
      <trkpt lat="45.3869" lon="5.79643">
        <ele>1423</ele>
        <time>2008-10-25T09:00:24Z</time>
      </trkpt>
      <trkpt lat="45.3869" lon="5.79628">
        <ele>1423</ele>
        <time>2008-10-25T09:00:51Z</time>
      </trkpt>
      <trkpt lat="45.3869" lon="5.79623">
        <ele>1423</ele>
        <time>2008-10-25T09:00:54Z</time>
      </trkpt>
      <trkpt lat="45.38693" lon="5.79604">
        <ele>1414</ele>
        <time>2008-10-25T09:01:12Z</time>
      </trkpt>
      <trkpt lat="45.38699" lon="5.79589">
        <ele>1412</ele>
        <time>2008-10-25T09:01:26Z</time>
      </trkpt>
      <trkpt lat="45.38708" lon="5.79578">
        <ele>1409</ele>
        <time>2008-10-25T09:01:42Z</time>
      </trkpt>
      <trkpt lat="45.38708" lon="5.79572">
        <ele>1408</ele>
        <time>2008-10-25T09:01:45Z</time>
      </trkpt>
      <trkpt lat="45.38733" lon="5.79559">
        <ele>1406</ele>
        <time>2008-10-25T09:02:03Z</time>
      </trkpt>
      <trkpt lat="45.38735" lon="5.79559">
        <ele>1406</ele>
        <time>2008-10-25T09:02:32Z</time>
      </trkpt>
      <trkpt lat="45.38774" lon="5.79567">
        <ele>1396</ele>
        <time>2008-10-25T09:02:49Z</time>
      </trkpt>
      <trkpt lat="45.38808" lon="5.79572">
        <ele>1387</ele>
        <time>2008-10-25T09:03:01Z</time>
      </trkpt>
      <trkpt lat="45.38832" lon="5.79578">
        <ele>1383</ele>
        <time>2008-10-25T09:03:17Z</time>
      </trkpt>
      <trkpt lat="45.38834" lon="5.79585">
        <ele>1381</ele>
        <time>2008-10-25T09:04:31Z</time>
      </trkpt>
      <trkpt lat="45.38849" lon="5.79591">
        <ele>1379</ele>
        <time>2008-10-25T09:06:18Z</time>
      </trkpt>
      <trkpt lat="45.3889" lon="5.79632">
        <ele>1378</ele>
        <time>2008-10-25T09:06:34Z</time>
      </trkpt>
      <trkpt lat="45.38937" lon="5.79653">
        <ele>1376</ele>
        <time>2008-10-25T09:06:54Z</time>
      </trkpt>
      <trkpt lat="45.3895" lon="5.79662">
        <ele>1373</ele>
        <time>2008-10-25T09:06:59Z</time>
      </trkpt>
      <trkpt lat="45.39004" lon="5.79658">
        <ele>1366</ele>
        <time>2008-10-25T09:07:18Z</time>
      </trkpt>
      <trkpt lat="45.39051" lon="5.79711">
        <ele>1360</ele>
        <time>2008-10-25T09:07:42Z</time>
      </trkpt>
      <trkpt lat="45.39066" lon="5.79726">
        <ele>1355</ele>
        <time>2008-10-25T09:07:58Z</time>
      </trkpt>
      <trkpt lat="45.39068" lon="5.79724">
        <ele>1353</ele>
        <time>2008-10-25T09:08:01Z</time>
      </trkpt>
      <trkpt lat="45.39085" lon="5.79718">
        <ele>1349</ele>
        <time>2008-10-25T09:08:14Z</time>
      </trkpt>
      <trkpt lat="45.39141" lon="5.79733">
        <ele>1334</ele>
        <time>2008-10-25T09:08:34Z</time>
      </trkpt>
      <trkpt lat="45.39233" lon="5.79763">
        <ele>1324</ele>
        <time>2008-10-25T09:08:59Z</time>
      </trkpt>
      <trkpt lat="45.39268" lon="5.79769">
        <ele>1319</ele>
        <time>2008-10-25T09:09:15Z</time>
      </trkpt>
      <trkpt lat="45.39278" lon="5.79767">
        <ele>1318</ele>
        <time>2008-10-25T09:09:19Z</time>
      </trkpt>
      <trkpt lat="45.39276" lon="5.79769">
        <ele>1318</ele>
        <time>2008-10-25T09:09:33Z</time>
      </trkpt>
      <trkpt lat="45.39285" lon="5.79763">
        <ele>1317</ele>
        <time>2008-10-25T09:09:46Z</time>
      </trkpt>
      <trkpt lat="45.393" lon="5.79761">
        <ele>1313</ele>
        <time>2008-10-25T09:10:01Z</time>
      </trkpt>
      <trkpt lat="45.39332" lon="5.79756">
        <ele>1306</ele>
        <time>2008-10-25T09:10:24Z</time>
      </trkpt>
      <trkpt lat="45.39375" lon="5.79825">
        <ele>1296</ele>
        <time>2008-10-25T09:10:53Z</time>
      </trkpt>
      <trkpt lat="45.39368" lon="5.79821">
        <ele>1294</ele>
        <time>2008-10-25T09:11:53Z</time>
      </trkpt>
      <trkpt lat="45.3939" lon="5.7978">
        <ele>1294</ele>
        <time>2008-10-25T09:12:10Z</time>
      </trkpt>
      <trkpt lat="45.39409" lon="5.79773">
        <ele>1291</ele>
        <time>2008-10-25T09:12:22Z</time>
      </trkpt>
      <trkpt lat="45.39416" lon="5.79767">
        <ele>1290</ele>
        <time>2008-10-25T09:12:30Z</time>
      </trkpt>
      <trkpt lat="45.39429" lon="5.79743">
        <ele>1281</ele>
        <time>2008-10-25T09:12:48Z</time>
      </trkpt>
      <trkpt lat="45.39484" lon="5.79724">
        <ele>1277</ele>
        <time>2008-10-25T09:13:16Z</time>
      </trkpt>
      <trkpt lat="45.39551" lon="5.79711">
        <ele>1276</ele>
        <time>2008-10-25T09:13:43Z</time>
      </trkpt>
      <trkpt lat="45.39632" lon="5.79724">
        <ele>1276</ele>
        <time>2008-10-25T09:14:09Z</time>
      </trkpt>
      <trkpt lat="45.39699" lon="5.79761">
        <ele>1276</ele>
        <time>2008-10-25T09:14:24Z</time>
      </trkpt>
      <trkpt lat="45.39795" lon="5.79767">
        <ele>1276</ele>
        <time>2008-10-25T09:14:44Z</time>
      </trkpt>
      <trkpt lat="45.39999" lon="5.7981">
        <ele>1276</ele>
        <time>2008-10-25T09:15:26Z</time>
      </trkpt>
      <trkpt lat="45.40147" lon="5.79876">
        <ele>1276</ele>
        <time>2008-10-25T09:15:59Z</time>
      </trkpt>
      <trkpt lat="45.40158" lon="5.79904">
        <ele>1120</ele>
        <time>2008-10-25T09:16:08Z</time>
      </trkpt>
      <trkpt lat="45.40158" lon="5.79904">
        <ele>1120</ele>
        <time>2008-10-25T09:16:09Z</time>
      </trkpt>
      <trkpt lat="45.40188" lon="5.79909">
        <ele>1122</ele>
        <time>2008-10-25T09:16:22Z</time>
      </trkpt>
      <trkpt lat="45.40229" lon="5.79952">
        <ele>1122</ele>
        <time>2008-10-25T09:16:34Z</time>
      </trkpt>
      <trkpt lat="45.40244" lon="5.79971">
        <ele>1122</ele>
        <time>2008-10-25T09:16:38Z</time>
      </trkpt>
      <trkpt lat="45.40272" lon="5.7999">
        <ele>1122</ele>
        <time>2008-10-25T09:16:44Z</time>
      </trkpt>
      <trkpt lat="45.40293" lon="5.80001">
        <ele>1122</ele>
        <time>2008-10-25T09:16:47Z</time>
      </trkpt>
      <trkpt lat="45.4034" lon="5.80007">
        <ele>1122</ele>
        <time>2008-10-25T09:16:52Z</time>
      </trkpt>
      <trkpt lat="45.4039" lon="5.79994">
        <ele>1122</ele>
        <time>2008-10-25T09:16:57Z</time>
      </trkpt>
      <trkpt lat="45.40446" lon="5.79997">
        <ele>1122</ele>
        <time>2008-10-25T09:17:02Z</time>
      </trkpt>
      <trkpt lat="45.40499" lon="5.80035">
        <ele>1120</ele>
        <time>2008-10-25T09:17:08Z</time>
      </trkpt>
      <trkpt lat="45.40551" lon="5.80108">
        <ele>1119</ele>
        <time>2008-10-25T09:17:15Z</time>
      </trkpt>
      <trkpt lat="45.40645" lon="5.8016">
        <ele>1116</ele>
        <time>2008-10-25T09:17:34Z</time>
      </trkpt>
      <trkpt lat="45.40677" lon="5.80177">
        <ele>1114</ele>
        <time>2008-10-25T09:17:39Z</time>
      </trkpt>
      <trkpt lat="45.40716" lon="5.80181">
        <ele>1110</ele>
        <time>2008-10-25T09:17:45Z</time>
      </trkpt>
      <trkpt lat="45.40735" lon="5.80143">
        <ele>1109</ele>
        <time>2008-10-25T09:17:54Z</time>
      </trkpt>
      <trkpt lat="45.40748" lon="5.80085">
        <ele>1112</ele>
        <time>2008-10-25T09:18:11Z</time>
      </trkpt>
      <trkpt lat="45.40767" lon="5.80035">
        <ele>1114</ele>
        <time>2008-10-25T09:18:31Z</time>
      </trkpt>
      <trkpt lat="45.40772" lon="5.79958">
        <ele>1117</ele>
        <time>2008-10-25T09:18:57Z</time>
      </trkpt>
      <trkpt lat="45.40815" lon="5.79907">
        <ele>1120</ele>
        <time>2008-10-25T09:19:22Z</time>
      </trkpt>
      <trkpt lat="45.40894" lon="5.7987">
        <ele>1126</ele>
        <time>2008-10-25T09:19:59Z</time>
      </trkpt>
      <trkpt lat="45.40939" lon="5.79857">
        <ele>1131</ele>
        <time>2008-10-25T09:20:25Z</time>
      </trkpt>
      <trkpt lat="45.40991" lon="5.79834">
        <ele>1137</ele>
        <time>2008-10-25T09:20:56Z</time>
      </trkpt>
      <trkpt lat="45.41029" lon="5.79804">
        <ele>1141</ele>
        <time>2008-10-25T09:21:23Z</time>
      </trkpt>
      <trkpt lat="45.41061" lon="5.79767">
        <ele>1145</ele>
        <time>2008-10-25T09:21:47Z</time>
      </trkpt>
      <trkpt lat="45.41057" lon="5.79743">
        <ele>1146</ele>
        <time>2008-10-25T09:21:57Z</time>
      </trkpt>
      <trkpt lat="45.41025" lon="5.79728">
        <ele>1149</ele>
        <time>2008-10-25T09:22:18Z</time>
      </trkpt>
      <trkpt lat="45.40988" lon="5.79713">
        <ele>1152</ele>
        <time>2008-10-25T09:22:40Z</time>
      </trkpt>
      <trkpt lat="45.40946" lon="5.79698">
        <ele>1156</ele>
        <time>2008-10-25T09:23:03Z</time>
      </trkpt>
      <trkpt lat="45.40896" lon="5.79685">
        <ele>1158</ele>
        <time>2008-10-25T09:23:28Z</time>
      </trkpt>
      <trkpt lat="45.40855" lon="5.79658">
        <ele>1159</ele>
        <time>2008-10-25T09:23:52Z</time>
      </trkpt>
      <trkpt lat="45.40817" lon="5.79625">
        <ele>1165</ele>
        <time>2008-10-25T09:24:16Z</time>
      </trkpt>
      <trkpt lat="45.40787" lon="5.79591">
        <ele>1168</ele>
        <time>2008-10-25T09:24:38Z</time>
      </trkpt>
      <trkpt lat="45.40763" lon="5.79561">
        <ele>1167</ele>
        <time>2008-10-25T09:24:57Z</time>
      </trkpt>
      <trkpt lat="45.40729" lon="5.79529">
        <ele>1169</ele>
        <time>2008-10-25T09:25:23Z</time>
      </trkpt>
      <trkpt lat="45.40692" lon="5.79475">
        <ele>1172</ele>
        <time>2008-10-25T09:25:56Z</time>
      </trkpt>
      <trkpt lat="45.40673" lon="5.79415">
        <ele>1178</ele>
        <time>2008-10-25T09:26:24Z</time>
      </trkpt>
      <trkpt lat="45.40695" lon="5.79374">
        <ele>1184</ele>
        <time>2008-10-25T09:26:46Z</time>
      </trkpt>
      <trkpt lat="45.40699" lon="5.79331">
        <ele>1187</ele>
        <time>2008-10-25T09:27:06Z</time>
      </trkpt>
      <trkpt lat="45.40677" lon="5.79286">
        <ele>1191</ele>
        <time>2008-10-25T09:27:26Z</time>
      </trkpt>
      <trkpt lat="45.40656" lon="5.79233">
        <ele>1196</ele>
        <time>2008-10-25T09:27:50Z</time>
      </trkpt>
      <trkpt lat="45.40641" lon="5.79181">
        <ele>1199</ele>
        <time>2008-10-25T09:28:13Z</time>
      </trkpt>
      <trkpt lat="45.40611" lon="5.7914">
        <ele>1202</ele>
        <time>2008-10-25T09:28:32Z</time>
      </trkpt>
      <trkpt lat="45.40559" lon="5.79098">
        <ele>1204</ele>
        <time>2008-10-25T09:28:58Z</time>
      </trkpt>
      <trkpt lat="45.40501" lon="5.79091">
        <ele>1206</ele>
        <time>2008-10-25T09:29:20Z</time>
      </trkpt>
      <trkpt lat="45.40443" lon="5.7907">
        <ele>1207</ele>
        <time>2008-10-25T09:29:41Z</time>
      </trkpt>
      <trkpt lat="45.40383" lon="5.79046">
        <ele>1207</ele>
        <time>2008-10-25T09:30:01Z</time>
      </trkpt>
      <trkpt lat="45.40379" lon="5.79044">
        <ele>1207</ele>
        <time>2008-10-25T09:30:12Z</time>
      </trkpt>
      <trkpt lat="45.40381" lon="5.79044">
        <ele>1209</ele>
        <time>2008-10-25T09:30:42Z</time>
      </trkpt>
      <trkpt lat="45.40373" lon="5.79037">
        <ele>1214</ele>
        <time>2008-10-25T09:31:57Z</time>
      </trkpt>
      <trkpt lat="45.4036" lon="5.79044">
        <ele>1212</ele>
        <time>2008-10-25T09:32:04Z</time>
      </trkpt>
      <trkpt lat="45.40319" lon="5.79055">
        <ele>1209</ele>
        <time>2008-10-25T09:32:17Z</time>
      </trkpt>
      <trkpt lat="45.40317" lon="5.79061">
        <ele>1210</ele>
        <time>2008-10-25T09:32:28Z</time>
      </trkpt>
      <trkpt lat="45.40317" lon="5.79061">
        <ele>1211</ele>
        <time>2008-10-25T09:32:47Z</time>
      </trkpt>
      <trkpt lat="45.40317" lon="5.79061">
        <ele>1211</ele>
        <time>2008-10-25T09:33:39Z</time>
      </trkpt>
      <trkpt lat="45.40315" lon="5.79059">
        <ele>1209</ele>
        <time>2008-10-25T09:35:31Z</time>
      </trkpt>
      <trkpt lat="45.40317" lon="5.79061">
        <ele>1206</ele>
        <time>2008-10-25T09:36:28Z</time>
      </trkpt>
      <trkpt lat="45.40315" lon="5.79059">
        <ele>1205</ele>
        <time>2008-10-25T09:36:49Z</time>
      </trkpt>
      <trkpt lat="45.40315" lon="5.79059">
        <ele>1209</ele>
        <time>2008-10-25T09:37:30Z</time>
      </trkpt>
      <trkpt lat="45.40317" lon="5.79057">
        <ele>1211</ele>
        <time>2008-10-25T09:38:03Z</time>
      </trkpt>
      <trkpt lat="45.40319" lon="5.79055">
        <ele>1211</ele>
        <time>2008-10-25T09:38:25Z</time>
      </trkpt>
      <trkpt lat="45.4031" lon="5.79055">
        <ele>1211</ele>
        <time>2008-10-25T09:38:30Z</time>
      </trkpt>
      <trkpt lat="45.40304" lon="5.79052">
        <ele>1211</ele>
        <time>2008-10-25T09:38:33Z</time>
      </trkpt>
      <trkpt lat="45.40304" lon="5.79055">
        <ele>1213</ele>
        <time>2008-10-25T09:38:51Z</time>
      </trkpt>
      <trkpt lat="45.40302" lon="5.79055">
        <ele>1213</ele>
        <time>2008-10-25T09:38:56Z</time>
      </trkpt>
      <trkpt lat="45.40272" lon="5.79031">
        <ele>1212</ele>
        <time>2008-10-25T09:39:09Z</time>
      </trkpt>
      <trkpt lat="45.40227" lon="5.79003">
        <ele>1214</ele>
        <time>2008-10-25T09:39:27Z</time>
      </trkpt>
      <trkpt lat="45.40165" lon="5.78932">
        <ele>1213</ele>
        <time>2008-10-25T09:39:50Z</time>
      </trkpt>
      <trkpt lat="45.40134" lon="5.78849">
        <ele>1216</ele>
        <time>2008-10-25T09:40:09Z</time>
      </trkpt>
      <trkpt lat="45.40113" lon="5.78789">
        <ele>1216</ele>
        <time>2008-10-25T09:40:27Z</time>
      </trkpt>
      <trkpt lat="45.40072" lon="5.78739">
        <ele>1218</ele>
        <time>2008-10-25T09:40:49Z</time>
      </trkpt>
      <trkpt lat="45.40021" lon="5.78668">
        <ele>1219</ele>
        <time>2008-10-25T09:41:16Z</time>
      </trkpt>
      <trkpt lat="45.39956" lon="5.78593">
        <ele>1224</ele>
        <time>2008-10-25T09:41:47Z</time>
      </trkpt>
      <trkpt lat="45.39935" lon="5.7857">
        <ele>1225</ele>
        <time>2008-10-25T09:41:56Z</time>
      </trkpt>
      <trkpt lat="45.39926" lon="5.78555">
        <ele>1224</ele>
        <time>2008-10-25T09:42:00Z</time>
      </trkpt>
      <trkpt lat="45.39905" lon="5.7849">
        <ele>1229</ele>
        <time>2008-10-25T09:42:16Z</time>
      </trkpt>
      <trkpt lat="45.39892" lon="5.7837">
        <ele>1234</ele>
        <time>2008-10-25T09:42:44Z</time>
      </trkpt>
      <trkpt lat="45.39879" lon="5.78284">
        <ele>1235</ele>
        <time>2008-10-25T09:43:10Z</time>
      </trkpt>
      <trkpt lat="45.39862" lon="5.78246">
        <ele>1242</ele>
        <time>2008-10-25T09:43:29Z</time>
      </trkpt>
      <trkpt lat="45.39825" lon="5.78192">
        <ele>1248</ele>
        <time>2008-10-25T09:43:54Z</time>
      </trkpt>
      <trkpt lat="45.39763" lon="5.78153">
        <ele>1249</ele>
        <time>2008-10-25T09:44:21Z</time>
      </trkpt>
      <trkpt lat="45.39697" lon="5.78132">
        <ele>1249</ele>
        <time>2008-10-25T09:44:41Z</time>
      </trkpt>
      <trkpt lat="45.39667" lon="5.7813">
        <ele>1249</ele>
        <time>2008-10-25T09:44:47Z</time>
      </trkpt>
      <trkpt lat="45.39583" lon="5.7813">
        <ele>1246</ele>
        <time>2008-10-25T09:44:59Z</time>
      </trkpt>
      <trkpt lat="45.39527" lon="5.78179">
        <ele>1244</ele>
        <time>2008-10-25T09:45:08Z</time>
      </trkpt>
      <trkpt lat="45.3945" lon="5.78276">
        <ele>1240</ele>
        <time>2008-10-25T09:45:26Z</time>
      </trkpt>
      <trkpt lat="45.3942" lon="5.78297">
        <ele>1239</ele>
        <time>2008-10-25T09:45:33Z</time>
      </trkpt>
      <trkpt lat="45.39321" lon="5.78327">
        <ele>1246</ele>
        <time>2008-10-25T09:45:56Z</time>
      </trkpt>
      <trkpt lat="45.39265" lon="5.78344">
        <ele>1248</ele>
        <time>2008-10-25T09:46:11Z</time>
      </trkpt>
      <trkpt lat="45.39214" lon="5.78347">
        <ele>1250</ele>
        <time>2008-10-25T09:46:27Z</time>
      </trkpt>
      <trkpt lat="45.39182" lon="5.78336">
        <ele>1253</ele>
        <time>2008-10-25T09:46:40Z</time>
      </trkpt>
      <trkpt lat="45.39169" lon="5.78293">
        <ele>1255</ele>
        <time>2008-10-25T09:46:52Z</time>
      </trkpt>
      <trkpt lat="45.39167" lon="5.78246">
        <ele>1256</ele>
        <time>2008-10-25T09:47:11Z</time>
      </trkpt>
      <trkpt lat="45.39158" lon="5.78231">
        <ele>1258</ele>
        <time>2008-10-25T09:47:41Z</time>
      </trkpt>
      <trkpt lat="45.3915" lon="5.78216">
        <ele>1263</ele>
        <time>2008-10-25T09:47:58Z</time>
      </trkpt>
      <trkpt lat="45.39147" lon="5.78214">
        <ele>1264</ele>
        <time>2008-10-25T09:48:03Z</time>
      </trkpt>
      <trkpt lat="45.39139" lon="5.78203">
        <ele>1266</ele>
        <time>2008-10-25T09:48:17Z</time>
      </trkpt>
      <trkpt lat="45.3913" lon="5.78198">
        <ele>1267</ele>
        <time>2008-10-25T09:48:30Z</time>
      </trkpt>
      <trkpt lat="45.39128" lon="5.78196">
        <ele>1267</ele>
        <time>2008-10-25T09:48:47Z</time>
      </trkpt>
      <trkpt lat="45.3912" lon="5.78192">
        <ele>1270</ele>
        <time>2008-10-25T09:49:00Z</time>
      </trkpt>
      <trkpt lat="45.39113" lon="5.7819">
        <ele>1273</ele>
        <time>2008-10-25T09:49:13Z</time>
      </trkpt>
      <trkpt lat="45.39098" lon="5.78183">
        <ele>1279</ele>
        <time>2008-10-25T09:49:31Z</time>
      </trkpt>
      <trkpt lat="45.39066" lon="5.78173">
        <ele>1282</ele>
        <time>2008-10-25T09:50:13Z</time>
      </trkpt>
      <trkpt lat="45.39042" lon="5.78168">
        <ele>1290</ele>
        <time>2008-10-25T09:50:41Z</time>
      </trkpt>
      <trkpt lat="45.39014" lon="5.78162">
        <ele>1293</ele>
        <time>2008-10-25T09:51:04Z</time>
      </trkpt>
      <trkpt lat="45.38993" lon="5.78149">
        <ele>1297</ele>
        <time>2008-10-25T09:51:29Z</time>
      </trkpt>
      <trkpt lat="45.38974" lon="5.78149">
        <ele>1299</ele>
        <time>2008-10-25T09:51:47Z</time>
      </trkpt>
      <trkpt lat="45.38944" lon="5.78145">
        <ele>1305</ele>
        <time>2008-10-25T09:52:16Z</time>
      </trkpt>
      <trkpt lat="45.38937" lon="5.78143">
        <ele>1302</ele>
        <time>2008-10-25T09:52:29Z</time>
      </trkpt>
      <trkpt lat="45.38909" lon="5.78119">
        <ele>1310</ele>
        <time>2008-10-25T09:52:52Z</time>
      </trkpt>
      <trkpt lat="45.38886" lon="5.78095">
        <ele>1311</ele>
        <time>2008-10-25T09:53:10Z</time>
      </trkpt>
      <trkpt lat="45.38877" lon="5.78089">
        <ele>1309</ele>
        <time>2008-10-25T09:53:22Z</time>
      </trkpt>
      <trkpt lat="45.38868" lon="5.78089">
        <ele>1310</ele>
        <time>2008-10-25T09:53:32Z</time>
      </trkpt>
      <trkpt lat="45.38841" lon="5.78078">
        <ele>1314</ele>
        <time>2008-10-25T09:53:57Z</time>
      </trkpt>
      <trkpt lat="45.38832" lon="5.78074">
        <ele>1316</ele>
        <time>2008-10-25T09:54:06Z</time>
      </trkpt>
      <trkpt lat="45.38804" lon="5.78065">
        <ele>1322</ele>
        <time>2008-10-25T09:54:36Z</time>
      </trkpt>
      <trkpt lat="45.38791" lon="5.78061">
        <ele>1325</ele>
        <time>2008-10-25T09:54:56Z</time>
      </trkpt>
      <trkpt lat="45.38774" lon="5.78059">
        <ele>1332</ele>
        <time>2008-10-25T09:55:23Z</time>
      </trkpt>
      <trkpt lat="45.38757" lon="5.78057">
        <ele>1331</ele>
        <time>2008-10-25T09:55:46Z</time>
      </trkpt>
      <trkpt lat="45.3874" lon="5.78055">
        <ele>1333</ele>
        <time>2008-10-25T09:56:08Z</time>
      </trkpt>
      <trkpt lat="45.3872" lon="5.78053">
        <ele>1336</ele>
        <time>2008-10-25T09:56:30Z</time>
      </trkpt>
      <trkpt lat="45.38697" lon="5.7804">
        <ele>1342</ele>
        <time>2008-10-25T09:56:56Z</time>
      </trkpt>
      <trkpt lat="45.38675" lon="5.78029">
        <ele>1345</ele>
        <time>2008-10-25T09:57:16Z</time>
      </trkpt>
      <trkpt lat="45.38658" lon="5.78018">
        <ele>1344</ele>
        <time>2008-10-25T09:57:36Z</time>
      </trkpt>
      <trkpt lat="45.38647" lon="5.78014">
        <ele>1348</ele>
        <time>2008-10-25T09:57:49Z</time>
      </trkpt>
      <trkpt lat="45.3862" lon="5.77992">
        <ele>1353</ele>
        <time>2008-10-25T09:58:10Z</time>
      </trkpt>
      <trkpt lat="45.38592" lon="5.7798">
        <ele>1353</ele>
        <time>2008-10-25T09:58:31Z</time>
      </trkpt>
      <trkpt lat="45.38557" lon="5.77969">
        <ele>1355</ele>
        <time>2008-10-25T09:58:56Z</time>
      </trkpt>
      <trkpt lat="45.38527" lon="5.7796">
        <ele>1358</ele>
        <time>2008-10-25T09:59:17Z</time>
      </trkpt>
      <trkpt lat="45.38489" lon="5.77954">
        <ele>1364</ele>
        <time>2008-10-25T09:59:42Z</time>
      </trkpt>
      <trkpt lat="45.38484" lon="5.77952">
        <ele>1367</ele>
        <time>2008-10-25T10:00:01Z</time>
      </trkpt>
      <trkpt lat="45.38465" lon="5.77956">
        <ele>1369</ele>
        <time>2008-10-25T10:00:44Z</time>
      </trkpt>
      <trkpt lat="45.38422" lon="5.77945">
        <ele>1371</ele>
        <time>2008-10-25T10:01:09Z</time>
      </trkpt>
      <trkpt lat="45.38384" lon="5.77932">
        <ele>1376</ele>
        <time>2008-10-25T10:01:35Z</time>
      </trkpt>
      <trkpt lat="45.38349" lon="5.77922">
        <ele>1376</ele>
        <time>2008-10-25T10:01:58Z</time>
      </trkpt>
      <trkpt lat="45.38304" lon="5.7793">
        <ele>1380</ele>
        <time>2008-10-25T10:02:24Z</time>
      </trkpt>
      <trkpt lat="45.38257" lon="5.77922">
        <ele>1381</ele>
        <time>2008-10-25T10:02:51Z</time>
      </trkpt>
      <trkpt lat="45.38208" lon="5.77909">
        <ele>1383</ele>
        <time>2008-10-25T10:03:15Z</time>
      </trkpt>
      <trkpt lat="45.38182" lon="5.77909">
        <ele>1388</ele>
        <time>2008-10-25T10:03:32Z</time>
      </trkpt>
      <trkpt lat="45.38154" lon="5.77937">
        <ele>1388</ele>
        <time>2008-10-25T10:03:55Z</time>
      </trkpt>
      <trkpt lat="45.38117" lon="5.77947">
        <ele>1391</ele>
        <time>2008-10-25T10:04:16Z</time>
      </trkpt>
      <trkpt lat="45.38081" lon="5.77939">
        <ele>1395</ele>
        <time>2008-10-25T10:04:39Z</time>
      </trkpt>
      <trkpt lat="45.38049" lon="5.77939">
        <ele>1398</ele>
        <time>2008-10-25T10:05:04Z</time>
      </trkpt>
      <trkpt lat="45.38019" lon="5.77943">
        <ele>1399</ele>
        <time>2008-10-25T10:05:31Z</time>
      </trkpt>
      <trkpt lat="45.38002" lon="5.77943">
        <ele>1400</ele>
        <time>2008-10-25T10:05:54Z</time>
      </trkpt>
      <trkpt lat="45.37997" lon="5.77941">
        <ele>1403</ele>
        <time>2008-10-25T10:06:06Z</time>
      </trkpt>
      <trkpt lat="45.37978" lon="5.77937">
        <ele>1408</ele>
        <time>2008-10-25T10:06:28Z</time>
      </trkpt>
      <trkpt lat="45.37963" lon="5.77935">
        <ele>1410</ele>
        <time>2008-10-25T10:06:46Z</time>
      </trkpt>
      <trkpt lat="45.37952" lon="5.77932">
        <ele>1410</ele>
        <time>2008-10-25T10:07:07Z</time>
      </trkpt>
      <trkpt lat="45.37942" lon="5.77926">
        <ele>1410</ele>
        <time>2008-10-25T10:07:28Z</time>
      </trkpt>
      <trkpt lat="45.37929" lon="5.77905">
        <ele>1414</ele>
        <time>2008-10-25T10:07:50Z</time>
      </trkpt>
      <trkpt lat="45.37916" lon="5.77889">
        <ele>1418</ele>
        <time>2008-10-25T10:08:05Z</time>
      </trkpt>
      <trkpt lat="45.37899" lon="5.77866">
        <ele>1420</ele>
        <time>2008-10-25T10:08:27Z</time>
      </trkpt>
      <trkpt lat="45.37892" lon="5.77857">
        <ele>1421</ele>
        <time>2008-10-25T10:08:35Z</time>
      </trkpt>
      <trkpt lat="45.37875" lon="5.77855">
        <ele>1426</ele>
        <time>2008-10-25T10:08:52Z</time>
      </trkpt>
      <trkpt lat="45.37862" lon="5.77842">
        <ele>1430</ele>
        <time>2008-10-25T10:09:08Z</time>
      </trkpt>
      <trkpt lat="45.37854" lon="5.77829">
        <ele>1433</ele>
        <time>2008-10-25T10:09:26Z</time>
      </trkpt>
      <trkpt lat="45.37856" lon="5.77829">
        <ele>1435</ele>
        <time>2008-10-25T10:09:40Z</time>
      </trkpt>
      <trkpt lat="45.37856" lon="5.77827">
        <ele>1442</ele>
        <time>2008-10-25T10:10:38Z</time>
      </trkpt>
      <trkpt lat="45.37856" lon="5.77825">
        <ele>1443</ele>
        <time>2008-10-25T10:10:40Z</time>
      </trkpt>
      <trkpt lat="45.37851" lon="5.77812">
        <ele>1441</ele>
        <time>2008-10-25T10:10:49Z</time>
      </trkpt>
    </trkseg>
  </trk>
  <trk>
    <name><![CDATA[Sortie VTT Chartreuse_6]]></name>
    <trkseg>
      <trkpt lat="45.37841" lon="5.77812">
        <ele>1441</ele>
        <time>2008-10-25T12:13:49Z</time>
      </trkpt>
      <trkpt lat="45.37839" lon="5.77819">
        <ele>1442</ele>
        <time>2008-10-25T12:14:13Z</time>
      </trkpt>
      <trkpt lat="45.37826" lon="5.77829">
        <ele>1444</ele>
        <time>2008-10-25T12:14:31Z</time>
      </trkpt>
      <trkpt lat="45.37823" lon="5.77829">
        <ele>1444</ele>
        <time>2008-10-25T12:14:32Z</time>
      </trkpt>
      <trkpt lat="45.37817" lon="5.7784">
        <ele>1445</ele>
        <time>2008-10-25T12:14:48Z</time>
      </trkpt>
      <trkpt lat="45.37806" lon="5.77855">
        <ele>1447</ele>
        <time>2008-10-25T12:15:08Z</time>
      </trkpt>
      <trkpt lat="45.37802" lon="5.77866">
        <ele>1449</ele>
        <time>2008-10-25T12:15:23Z</time>
      </trkpt>
      <trkpt lat="45.37796" lon="5.77872">
        <ele>1452</ele>
        <time>2008-10-25T12:15:38Z</time>
      </trkpt>
      <trkpt lat="45.37783" lon="5.77881">
        <ele>1454</ele>
        <time>2008-10-25T12:15:57Z</time>
      </trkpt>
      <trkpt lat="45.37768" lon="5.77887">
        <ele>1457</ele>
        <time>2008-10-25T12:16:17Z</time>
      </trkpt>
      <trkpt lat="45.37763" lon="5.77887">
        <ele>1457</ele>
        <time>2008-10-25T12:16:23Z</time>
      </trkpt>
      <trkpt lat="45.37746" lon="5.77898">
        <ele>1461</ele>
        <time>2008-10-25T12:16:45Z</time>
      </trkpt>
      <trkpt lat="45.37727" lon="5.77905">
        <ele>1463</ele>
        <time>2008-10-25T12:17:10Z</time>
      </trkpt>
      <trkpt lat="45.3771" lon="5.77915">
        <ele>1468</ele>
        <time>2008-10-25T12:17:31Z</time>
      </trkpt>
      <trkpt lat="45.37693" lon="5.7792">
        <ele>1469</ele>
        <time>2008-10-25T12:17:54Z</time>
      </trkpt>
      <trkpt lat="45.37682" lon="5.7793">
        <ele>1473</ele>
        <time>2008-10-25T12:18:15Z</time>
      </trkpt>
      <trkpt lat="45.37675" lon="5.77928">
        <ele>1474</ele>
        <time>2008-10-25T12:19:19Z</time>
      </trkpt>
      <trkpt lat="45.37648" lon="5.77926">
        <ele>1490</ele>
        <time>2008-10-25T12:20:51Z</time>
      </trkpt>
      <trkpt lat="45.3763" lon="5.77928">
        <ele>1487</ele>
        <time>2008-10-25T12:21:08Z</time>
      </trkpt>
      <trkpt lat="45.37615" lon="5.7793">
        <ele>1487</ele>
        <time>2008-10-25T12:21:29Z</time>
      </trkpt>
      <trkpt lat="45.3759" lon="5.77924">
        <ele>1486</ele>
        <time>2008-10-25T12:21:58Z</time>
      </trkpt>
      <trkpt lat="45.37575" lon="5.77922">
        <ele>1490</ele>
        <time>2008-10-25T12:22:17Z</time>
      </trkpt>
      <trkpt lat="45.37553" lon="5.77928">
        <ele>1494</ele>
        <time>2008-10-25T12:22:41Z</time>
      </trkpt>
      <trkpt lat="45.37549" lon="5.77926">
        <ele>1495</ele>
        <time>2008-10-25T12:23:00Z</time>
      </trkpt>
      <trkpt lat="45.37555" lon="5.77922">
        <ele>1503</ele>
        <time>2008-10-25T12:23:20Z</time>
      </trkpt>
      <trkpt lat="45.37553" lon="5.77928">
        <ele>1505</ele>
        <time>2008-10-25T12:23:47Z</time>
      </trkpt>
      <trkpt lat="45.37545" lon="5.77935">
        <ele>1515</ele>
        <time>2008-10-25T12:24:49Z</time>
      </trkpt>
      <trkpt lat="45.37532" lon="5.77937">
        <ele>1509</ele>
        <time>2008-10-25T12:25:07Z</time>
      </trkpt>
      <trkpt lat="45.37521" lon="5.7795">
        <ele>1505</ele>
        <time>2008-10-25T12:25:19Z</time>
      </trkpt>
      <trkpt lat="45.37525" lon="5.77954">
        <ele>1503</ele>
        <time>2008-10-25T12:25:23Z</time>
      </trkpt>
      <trkpt lat="45.37538" lon="5.78003">
        <ele>1500</ele>
        <time>2008-10-25T12:25:44Z</time>
      </trkpt>
      <trkpt lat="45.3754" lon="5.78005">
        <ele>1495</ele>
        <time>2008-10-25T12:25:57Z</time>
      </trkpt>
      <trkpt lat="45.3754" lon="5.78029">
        <ele>1492</ele>
        <time>2008-10-25T12:26:08Z</time>
      </trkpt>
      <trkpt lat="45.37538" lon="5.78035">
        <ele>1488</ele>
        <time>2008-10-25T12:26:13Z</time>
      </trkpt>
      <trkpt lat="45.37538" lon="5.78087">
        <ele>1487</ele>
        <time>2008-10-25T12:26:35Z</time>
      </trkpt>
      <trkpt lat="45.37525" lon="5.78166">
        <ele>1483</ele>
        <time>2008-10-25T12:27:02Z</time>
      </trkpt>
      <trkpt lat="45.3751" lon="5.78198">
        <ele>1479</ele>
        <time>2008-10-25T12:27:14Z</time>
      </trkpt>
      <trkpt lat="45.37489" lon="5.78194">
        <ele>1472</ele>
        <time>2008-10-25T12:27:27Z</time>
      </trkpt>
      <trkpt lat="45.37487" lon="5.7819">
        <ele>1463</ele>
        <time>2008-10-25T12:28:08Z</time>
      </trkpt>
      <trkpt lat="45.37489" lon="5.7819">
        <ele>1462</ele>
        <time>2008-10-25T12:28:27Z</time>
      </trkpt>
      <trkpt lat="45.37491" lon="5.78192">
        <ele>1450</ele>
        <time>2008-10-25T12:29:06Z</time>
      </trkpt>
      <trkpt lat="45.37491" lon="5.78194">
        <ele>1450</ele>
        <time>2008-10-25T12:29:10Z</time>
      </trkpt>
      <trkpt lat="45.37491" lon="5.78203">
        <ele>1450</ele>
        <time>2008-10-25T12:29:17Z</time>
      </trkpt>
      <trkpt lat="45.37444" lon="5.78201">
        <ele>1446</ele>
        <time>2008-10-25T12:29:33Z</time>
      </trkpt>
      <trkpt lat="45.37437" lon="5.78196">
        <ele>1444</ele>
        <time>2008-10-25T12:29:48Z</time>
      </trkpt>
      <trkpt lat="45.37437" lon="5.78198">
        <ele>1435</ele>
        <time>2008-10-25T12:30:29Z</time>
      </trkpt>
      <trkpt lat="45.37442" lon="5.7819">
        <ele>1433</ele>
        <time>2008-10-25T12:32:27Z</time>
      </trkpt>
      <trkpt lat="45.37442" lon="5.78188">
        <ele>1432</ele>
        <time>2008-10-25T12:32:35Z</time>
      </trkpt>
      <trkpt lat="45.37442" lon="5.78179">
        <ele>1433</ele>
        <time>2008-10-25T12:32:38Z</time>
      </trkpt>
      <trkpt lat="45.37446" lon="5.78168">
        <ele>1432</ele>
        <time>2008-10-25T12:32:41Z</time>
      </trkpt>
      <trkpt lat="45.37465" lon="5.7813">
        <ele>1433</ele>
        <time>2008-10-25T12:32:54Z</time>
      </trkpt>
      <trkpt lat="45.37459" lon="5.78102">
        <ele>1433</ele>
        <time>2008-10-25T12:33:02Z</time>
      </trkpt>
      <trkpt lat="45.37431" lon="5.781">
        <ele>1420</ele>
        <time>2008-10-25T12:33:15Z</time>
      </trkpt>
      <trkpt lat="45.37373" lon="5.78078">
        <ele>1416</ele>
        <time>2008-10-25T12:33:33Z</time>
      </trkpt>
      <trkpt lat="45.37358" lon="5.78072">
        <ele>1416</ele>
        <time>2008-10-25T12:33:37Z</time>
      </trkpt>
      <trkpt lat="45.37319" lon="5.78055">
        <ele>1415</ele>
        <time>2008-10-25T12:33:54Z</time>
      </trkpt>
      <trkpt lat="45.37319" lon="5.7805">
        <ele>1414</ele>
        <time>2008-10-25T12:34:17Z</time>
      </trkpt>
      <trkpt lat="45.37319" lon="5.7805">
        <ele>1414</ele>
        <time>2008-10-25T12:34:18Z</time>
      </trkpt>
      <trkpt lat="45.37315" lon="5.78048">
        <ele>1414</ele>
        <time>2008-10-25T12:34:21Z</time>
      </trkpt>
      <trkpt lat="45.37283" lon="5.78059">
        <ele>1414</ele>
        <time>2008-10-25T12:34:37Z</time>
      </trkpt>
      <trkpt lat="45.37244" lon="5.7807">
        <ele>1413</ele>
        <time>2008-10-25T12:34:56Z</time>
      </trkpt>
      <trkpt lat="45.37186" lon="5.78074">
        <ele>1412</ele>
        <time>2008-10-25T12:35:15Z</time>
      </trkpt>
      <trkpt lat="45.37169" lon="5.78095">
        <ele>1412</ele>
        <time>2008-10-25T12:35:18Z</time>
      </trkpt>
      <trkpt lat="45.37158" lon="5.78106">
        <ele>1411</ele>
        <time>2008-10-25T12:35:21Z</time>
      </trkpt>
      <trkpt lat="45.37152" lon="5.78123">
        <ele>1411</ele>
        <time>2008-10-25T12:35:25Z</time>
      </trkpt>
      <trkpt lat="45.37158" lon="5.78181">
        <ele>1410</ele>
        <time>2008-10-25T12:35:35Z</time>
      </trkpt>
      <trkpt lat="45.37208" lon="5.78265">
        <ele>1409</ele>
        <time>2008-10-25T12:35:52Z</time>
      </trkpt>
      <trkpt lat="45.37285" lon="5.78357">
        <ele>1407</ele>
        <time>2008-10-25T12:36:16Z</time>
      </trkpt>
      <trkpt lat="45.37334" lon="5.78368">
        <ele>1241</ele>
        <time>2008-10-25T12:37:34Z</time>
      </trkpt>
      <trkpt lat="45.37343" lon="5.78383">
        <ele>1243</ele>
        <time>2008-10-25T12:37:39Z</time>
      </trkpt>
      <trkpt lat="45.37377" lon="5.78456">
        <ele>1247</ele>
        <time>2008-10-25T12:37:56Z</time>
      </trkpt>
      <trkpt lat="45.37381" lon="5.78469">
        <ele>1247</ele>
        <time>2008-10-25T12:38:00Z</time>
      </trkpt>
      <trkpt lat="45.37366" lon="5.78514">
        <ele>1245</ele>
        <time>2008-10-25T12:38:11Z</time>
      </trkpt>
    </trkseg>
  </trk>
  <trk>
    <name><![CDATA[Sortie VTT Chartreuse_7]]></name>
    <trkseg>
      <trkpt lat="45.37351" lon="5.7854">
        <ele>1275</ele>
        <time>2008-10-25T12:53:27Z</time>
      </trkpt>
      <trkpt lat="45.37345" lon="5.78546">
        <ele>1274</ele>
        <time>2008-10-25T12:53:31Z</time>
      </trkpt>
      <trkpt lat="45.37319" lon="5.78574">
        <ele>1269</ele>
        <time>2008-10-25T12:53:45Z</time>
      </trkpt>
      <trkpt lat="45.37302" lon="5.78595">
        <ele>1262</ele>
        <time>2008-10-25T12:53:54Z</time>
      </trkpt>
      <trkpt lat="45.37296" lon="5.78632">
        <ele>1257</ele>
        <time>2008-10-25T12:54:05Z</time>
      </trkpt>
      <trkpt lat="45.37306" lon="5.78647">
        <ele>1253</ele>
        <time>2008-10-25T12:54:13Z</time>
      </trkpt>
      <trkpt lat="45.37291" lon="5.7866">
        <ele>1252</ele>
        <time>2008-10-25T12:54:23Z</time>
      </trkpt>
      <trkpt lat="45.37281" lon="5.78668">
        <ele>1253</ele>
        <time>2008-10-25T12:54:31Z</time>
      </trkpt>
      <trkpt lat="45.37255" lon="5.78673">
        <ele>1252</ele>
        <time>2008-10-25T12:54:49Z</time>
      </trkpt>
      <trkpt lat="45.37251" lon="5.78677">
        <ele>1251</ele>
        <time>2008-10-25T12:54:57Z</time>
      </trkpt>
      <trkpt lat="45.37251" lon="5.7869">
        <ele>1251</ele>
        <time>2008-10-25T12:55:03Z</time>
      </trkpt>
      <trkpt lat="45.37244" lon="5.78733">
        <ele>1244</ele>
        <time>2008-10-25T12:55:20Z</time>
      </trkpt>
      <trkpt lat="45.37216" lon="5.78771">
        <ele>1242</ele>
        <time>2008-10-25T12:55:38Z</time>
      </trkpt>
      <trkpt lat="45.37195" lon="5.78801">
        <ele>1232</ele>
        <time>2008-10-25T12:55:53Z</time>
      </trkpt>
      <trkpt lat="45.37197" lon="5.78806">
        <ele>1232</ele>
        <time>2008-10-25T12:55:56Z</time>
      </trkpt>
      <trkpt lat="45.37193" lon="5.78819">
        <ele>1230</ele>
        <time>2008-10-25T12:56:11Z</time>
      </trkpt>
      <trkpt lat="45.37182" lon="5.78825">
        <ele>1231</ele>
        <time>2008-10-25T12:56:27Z</time>
      </trkpt>
      <trkpt lat="45.37139" lon="5.78898">
        <ele>1230</ele>
        <time>2008-10-25T12:56:45Z</time>
      </trkpt>
      <trkpt lat="45.37133" lon="5.78915">
        <ele>1229</ele>
        <time>2008-10-25T12:56:53Z</time>
      </trkpt>
      <trkpt lat="45.37141" lon="5.78941">
        <ele>1228</ele>
        <time>2008-10-25T12:57:00Z</time>
      </trkpt>
      <trkpt lat="45.37163" lon="5.78984">
        <ele>1222</ele>
        <time>2008-10-25T12:57:18Z</time>
      </trkpt>
      <trkpt lat="45.37169" lon="5.78995">
        <ele>1217</ele>
        <time>2008-10-25T12:57:35Z</time>
      </trkpt>
      <trkpt lat="45.37186" lon="5.79044">
        <ele>1210</ele>
        <time>2008-10-25T12:57:55Z</time>
      </trkpt>
      <trkpt lat="45.37206" lon="5.79076">
        <ele>1207</ele>
        <time>2008-10-25T12:58:15Z</time>
      </trkpt>
      <trkpt lat="45.37214" lon="5.79087">
        <ele>1201</ele>
        <time>2008-10-25T12:58:32Z</time>
      </trkpt>
      <trkpt lat="45.37223" lon="5.79106">
        <ele>1195</ele>
        <time>2008-10-25T12:58:51Z</time>
      </trkpt>
      <trkpt lat="45.37246" lon="5.79125">
        <ele>1185</ele>
        <time>2008-10-25T12:59:11Z</time>
      </trkpt>
      <trkpt lat="45.37304" lon="5.79162">
        <ele>1176</ele>
        <time>2008-10-25T12:59:35Z</time>
      </trkpt>
      <trkpt lat="45.37356" lon="5.79241">
        <ele>1169</ele>
        <time>2008-10-25T13:00:01Z</time>
      </trkpt>
      <trkpt lat="45.37377" lon="5.79325">
        <ele>1169</ele>
        <time>2008-10-25T13:00:22Z</time>
      </trkpt>
      <trkpt lat="45.37369" lon="5.79349">
        <ele>1168</ele>
        <time>2008-10-25T13:00:36Z</time>
      </trkpt>
      <trkpt lat="45.37366" lon="5.79349">
        <ele>1164</ele>
        <time>2008-10-25T13:00:43Z</time>
      </trkpt>
      <trkpt lat="45.37319" lon="5.79319">
        <ele>1162</ele>
        <time>2008-10-25T13:01:02Z</time>
      </trkpt>
      <trkpt lat="45.37278" lon="5.79323">
        <ele>1154</ele>
        <time>2008-10-25T13:01:17Z</time>
      </trkpt>
      <trkpt lat="45.37272" lon="5.79334">
        <ele>1141</ele>
        <time>2008-10-25T13:01:27Z</time>
      </trkpt>
      <trkpt lat="45.37233" lon="5.79366">
        <ele>1146</ele>
        <time>2008-10-25T13:01:52Z</time>
      </trkpt>
      <trkpt lat="45.37253" lon="5.79364">
        <ele>1135</ele>
        <time>2008-10-25T13:02:17Z</time>
      </trkpt>
      <trkpt lat="45.37225" lon="5.79329">
        <ele>1135</ele>
        <time>2008-10-25T13:02:30Z</time>
      </trkpt>
      <trkpt lat="45.37229" lon="5.79321">
        <ele>1134</ele>
        <time>2008-10-25T13:03:21Z</time>
      </trkpt>
      <trkpt lat="45.37221" lon="5.79327">
        <ele>1137</ele>
        <time>2008-10-25T13:04:09Z</time>
      </trkpt>
      <trkpt lat="45.37223" lon="5.79334">
        <ele>1134</ele>
        <time>2008-10-25T13:04:46Z</time>
      </trkpt>
      <trkpt lat="45.37233" lon="5.79321">
        <ele>1134</ele>
        <time>2008-10-25T13:05:30Z</time>
      </trkpt>
      <trkpt lat="45.37244" lon="5.79316">
        <ele>1142</ele>
        <time>2008-10-25T13:07:07Z</time>
      </trkpt>
      <trkpt lat="45.37238" lon="5.79312">
        <ele>1142</ele>
        <time>2008-10-25T13:07:18Z</time>
      </trkpt>
      <trkpt lat="45.37193" lon="5.79286">
        <ele>1142</ele>
        <time>2008-10-25T13:07:38Z</time>
      </trkpt>
      <trkpt lat="45.37184" lon="5.7928">
        <ele>1142</ele>
        <time>2008-10-25T13:07:42Z</time>
      </trkpt>
      <trkpt lat="45.37135" lon="5.79274">
        <ele>1142</ele>
        <time>2008-10-25T13:07:51Z</time>
      </trkpt>
    </trkseg>
  </trk>
  <trk>
    <name><![CDATA[Sortie VTT Chartreuse_8]]></name>
    <trkseg>
      <trkpt lat="45.3683" lon="5.79344">
        <ele>1142</ele>
        <time>2008-10-25T13:08:30Z</time>
      </trkpt>
      <trkpt lat="45.36794" lon="5.79334">
        <ele>1079</ele>
        <time>2008-10-25T13:08:44Z</time>
      </trkpt>
      <trkpt lat="45.3674" lon="5.79286">
        <ele>1079</ele>
        <time>2008-10-25T13:08:54Z</time>
      </trkpt>
      <trkpt lat="45.36706" lon="5.79291">
        <ele>1079</ele>
        <time>2008-10-25T13:08:58Z</time>
      </trkpt>
      <trkpt lat="45.36658" lon="5.79323">
        <ele>1079</ele>
        <time>2008-10-25T13:09:04Z</time>
      </trkpt>
      <trkpt lat="45.3656" lon="5.79346">
        <ele>1028</ele>
        <time>2008-10-25T13:09:16Z</time>
      </trkpt>
      <trkpt lat="45.36545" lon="5.79344">
        <ele>1027</ele>
        <time>2008-10-25T13:09:19Z</time>
      </trkpt>
      <trkpt lat="45.3654" lon="5.79344">
        <ele>1021</ele>
        <time>2008-10-25T13:09:34Z</time>
      </trkpt>
      <trkpt lat="45.3654" lon="5.79346">
        <ele>987</ele>
        <time>2008-10-25T13:10:46Z</time>
      </trkpt>
      <trkpt lat="45.36502" lon="5.79325">
        <ele>985</ele>
        <time>2008-10-25T13:11:02Z</time>
      </trkpt>
      <trkpt lat="45.36452" lon="5.79286">
        <ele>985</ele>
        <time>2008-10-25T13:11:18Z</time>
      </trkpt>
      <trkpt lat="45.36313" lon="5.79196">
        <ele>981</ele>
        <time>2008-10-25T13:11:25Z</time>
      </trkpt>
    </trkseg>
  </trk>
  <trk>
    <name><![CDATA[Sortie VTT Chartreuse_9]]></name>
    <trkseg>
      <trkpt lat="45.36289" lon="5.7914">
        <ele>931</ele>
        <time>2008-10-25T13:25:34Z</time>
      </trkpt>
      <trkpt lat="45.36276" lon="5.7914">
        <ele>928</ele>
        <time>2008-10-25T13:26:36Z</time>
      </trkpt>
      <trkpt lat="45.36266" lon="5.79138">
        <ele>929</ele>
        <time>2008-10-25T13:27:59Z</time>
      </trkpt>
      <trkpt lat="45.36251" lon="5.79123">
        <ele>929</ele>
        <time>2008-10-25T13:29:30Z</time>
      </trkpt>
      <trkpt lat="45.36238" lon="5.79106">
        <ele>929</ele>
        <time>2008-10-25T13:29:33Z</time>
      </trkpt>
      <trkpt lat="45.36165" lon="5.79085">
        <ele>927</ele>
        <time>2008-10-25T13:29:42Z</time>
      </trkpt>
      <trkpt lat="45.36115" lon="5.79072">
        <ele>927</ele>
        <time>2008-10-25T13:29:47Z</time>
      </trkpt>
      <trkpt lat="45.36049" lon="5.79022">
        <ele>927</ele>
        <time>2008-10-25T13:29:53Z</time>
      </trkpt>
      <trkpt lat="45.36015" lon="5.78995">
        <ele>927</ele>
        <time>2008-10-25T13:29:56Z</time>
      </trkpt>
      <trkpt lat="45.35931" lon="5.78911">
        <ele>927</ele>
        <time>2008-10-25T13:30:03Z</time>
      </trkpt>
      <trkpt lat="45.3565" lon="5.78698">
        <ele>925</ele>
        <time>2008-10-25T13:30:24Z</time>
      </trkpt>
      <trkpt lat="45.35521" lon="5.78774">
        <ele>820</ele>
        <time>2008-10-25T13:30:31Z</time>
      </trkpt>
      <trkpt lat="45.35525" lon="5.78789">
        <ele>820</ele>
        <time>2008-10-25T13:30:39Z</time>
      </trkpt>
      <trkpt lat="45.35532" lon="5.78789">
        <ele>819</ele>
        <time>2008-10-25T13:31:06Z</time>
      </trkpt>
      <trkpt lat="45.35528" lon="5.78789">
        <ele>820</ele>
        <time>2008-10-25T13:31:38Z</time>
      </trkpt>
    </trkseg>
  </trk>
</gpx>